createdAt,value
2019-02-27T00:00:13.460Z,27.00
2019-02-27T00:02:42.077Z,27.00
2019-02-27T00:05:10.759Z,27.00
2019-02-27T00:07:39.236Z,27.00
2019-02-27T00:10:08.349Z,27.00
2019-02-27T00:12:36.955Z,27.00
2019-02-27T00:15:06.939Z,27.10
2019-02-27T00:17:35.384Z,27.10
2019-02-27T00:20:05.312Z,27.00
2019-02-27T00:22:33.966Z,27.10
2019-02-27T00:25:03.310Z,27.10
2019-02-27T00:27:32.582Z,27.10
2019-02-27T00:30:04.638Z,27.10
2019-02-27T00:32:31.313Z,27.10
2019-02-27T00:34:59.800Z,27.10
2019-02-27T00:37:28.280Z,27.20
2019-02-27T00:39:56.861Z,27.10
2019-02-27T00:42:33.251Z,27.20
2019-02-27T00:44:55.598Z,27.20
2019-02-27T00:47:24.119Z,27.20
2019-02-27T00:49:52.598Z,27.10
2019-02-27T00:52:21.081Z,27.20
2019-02-27T00:54:49.534Z,27.30
2019-02-27T00:57:20.605Z,27.40
2019-02-27T00:59:48.285Z,27.30
2019-02-27T01:02:19.939Z,27.40
2019-02-27T01:04:46.973Z,27.40
2019-02-27T01:07:20.262Z,27.50
2019-02-27T01:09:47.041Z,27.50
2019-02-27T01:12:15.521Z,27.50
2019-02-27T01:14:43.977Z,27.60
2019-02-27T01:17:12.536Z,27.90
2019-02-27T01:19:42.710Z,27.60
2019-02-27T01:22:11.285Z,27.60
2019-02-27T01:24:39.731Z,27.60
2019-02-27T01:27:08.248Z,27.60
2019-02-27T01:29:36.782Z,27.60
2019-02-27T01:32:05.258Z,27.60
2019-02-27T01:34:33.721Z,27.60
2019-02-27T01:37:02.199Z,27.60
2019-02-27T01:39:30.696Z,27.50
2019-02-27T01:41:59.228Z,27.60
2019-02-27T01:44:30.689Z,27.60
2019-02-27T01:47:01.840Z,27.60
2019-02-27T01:49:29.443Z,27.60
2019-02-27T01:51:59.137Z,27.60
2019-02-27T01:54:28.149Z,27.80
2019-02-27T01:56:56.682Z,27.70
2019-02-27T01:59:25.163Z,27.70
2019-02-27T02:01:53.644Z,27.80
2019-02-27T02:04:22.125Z,27.80
2019-02-27T02:06:50.603Z,27.70
2019-02-27T02:09:32.345Z,27.70
2019-02-27T02:12:08.670Z,27.80
2019-02-27T02:14:45.702Z,27.80
2019-02-27T02:17:20.172Z,27.90
2019-02-27T02:20:00.429Z,27.90
2019-02-27T02:22:34.601Z,28.00
2019-02-27T02:25:14.729Z,28.00
2019-02-27T02:28:01.286Z,28.00
2019-02-27T02:30:49.078Z,28.60
2019-02-27T02:33:30.491Z,28.60
2019-02-27T02:36:28.756Z,28.60
2019-02-27T02:39:17.674Z,28.60
2019-02-27T02:42:07.326Z,28.60
2019-02-27T02:44:41.879Z,28.50
2019-02-27T02:47:19.979Z,28.60
2019-02-27T02:50:19.290Z,28.60
2019-02-27T02:53:10.047Z,28.70
2019-02-27T02:56:08.663Z,28.60
2019-02-27T02:58:47.276Z,28.70
2019-02-27T03:01:16.534Z,28.60
2019-02-27T03:04:12.811Z,28.60
2019-02-27T03:06:47.916Z,28.70
2019-02-27T03:09:34.377Z,28.60
2019-02-27T03:12:08.578Z,28.50
2019-02-27T03:14:45.701Z,28.60
2019-02-27T03:17:28.927Z,28.60
2019-02-27T03:20:16.802Z,28.60
2019-02-27T03:23:05.034Z,28.70
2019-02-27T03:25:40.710Z,28.70
2019-02-27T03:28:21.455Z,28.60
2019-02-27T03:31:17.955Z,28.70
2019-02-27T03:34:05.889Z,28.70
2019-02-27T03:36:54.125Z,28.70
2019-02-27T03:39:46.699Z,28.60
2019-02-27T03:42:30.836Z,28.70
2019-02-27T03:45:03.324Z,28.70
2019-02-27T03:47:43.902Z,28.70
2019-02-27T03:50:18.416Z,28.80
2019-02-27T03:53:10.887Z,28.80
2019-02-27T03:55:52.856Z,28.80
2019-02-27T03:58:33.199Z,28.80
2019-02-27T04:01:16.699Z,28.90
2019-02-27T04:04:06.295Z,28.90
2019-02-27T04:06:59.890Z,29.00
2019-02-27T04:09:28.369Z,29.00
2019-02-27T04:11:56.850Z,29.00
2019-02-27T04:14:40.213Z,29.00
2019-02-27T04:17:07.386Z,29.00
2019-02-27T04:19:39.295Z,29.10
2019-02-27T04:22:06.013Z,29.10
2019-02-27T04:24:34.501Z,29.00
2019-02-27T04:27:03.021Z,29.10
2019-02-27T04:29:31.590Z,29.10
2019-02-27T04:32:00.115Z,29.10
2019-02-27T04:34:33.028Z,29.10
2019-02-27T04:36:58.784Z,29.10
2019-02-27T04:39:27.234Z,29.10
2019-02-27T04:41:55.718Z,29.10
2019-02-27T04:44:24.195Z,29.10
2019-02-27T04:46:54.926Z,29.10
2019-02-27T04:49:22.913Z,29.10
2019-02-27T04:51:51.408Z,29.20
2019-02-27T04:54:19.880Z,29.20
2019-02-27T04:56:48.464Z,29.30
2019-02-27T04:59:18.765Z,29.30
2019-02-27T05:01:47.134Z,29.30
2019-02-27T05:04:15.665Z,29.30
2019-02-27T05:06:46.821Z,29.30
2019-02-27T05:09:14.407Z,29.30
2019-02-27T05:11:47.605Z,29.30
2019-02-27T05:14:13.072Z,29.20
2019-02-27T05:16:41.562Z,29.30
2019-02-27T05:19:10.024Z,29.60
2019-02-27T05:21:38.608Z,29.30
2019-02-27T05:24:07.681Z,29.30
2019-02-27T05:26:37.135Z,29.30
2019-02-27T05:29:05.708Z,29.40
2019-02-27T05:31:34.236Z,29.40
2019-02-27T05:34:02.780Z,29.30
2019-02-27T05:36:31.767Z,29.40
2019-02-27T05:39:00.826Z,29.40
2019-02-27T05:41:32.991Z,29.50
2019-02-27T05:43:59.548Z,29.50
2019-02-27T05:46:28.021Z,29.50
2019-02-27T05:48:56.574Z,29.60
2019-02-27T05:51:25.024Z,29.60
2019-02-27T05:53:56.175Z,29.50
2019-02-27T05:56:23.733Z,29.50
2019-02-27T05:58:56.113Z,29.60
2019-02-27T06:01:22.401Z,29.60
2019-02-27T06:03:52.313Z,29.70
2019-02-27T06:06:21.064Z,29.70
2019-02-27T06:08:49.539Z,29.70
2019-02-27T06:11:18.108Z,29.70
2019-02-27T06:13:47.446Z,29.70
2019-02-27T06:16:16.680Z,29.70
2019-02-27T06:18:45.148Z,29.70
2019-02-27T06:21:16.374Z,29.70
2019-02-27T06:23:43.861Z,29.70
2019-02-27T06:26:12.397Z,29.60
2019-02-27T06:28:41.902Z,29.60
2019-02-27T06:31:10.443Z,29.60
2019-02-27T06:33:38.897Z,29.60
2019-02-27T06:36:07.937Z,29.50
2019-02-27T06:38:37.008Z,29.60
2019-02-27T06:41:05.494Z,29.60
2019-02-27T06:43:33.951Z,29.90
2019-02-27T06:46:02.437Z,29.60
2019-02-27T06:48:30.891Z,29.60
2019-02-27T06:51:00.977Z,29.50
2019-02-27T06:53:29.629Z,29.50
2019-02-27T06:56:02.801Z,29.50
2019-02-27T06:58:28.289Z,29.50
2019-02-27T07:00:56.759Z,29.60
2019-02-27T07:03:29.270Z,29.60
2019-02-27T07:05:55.424Z,29.60
2019-02-27T07:08:23.905Z,29.60
2019-02-27T07:10:52.385Z,29.70
2019-02-27T07:13:21.685Z,29.70
2019-02-27T07:15:50.299Z,30.00
2019-02-27T07:18:18.793Z,29.80
2019-02-27T07:20:47.265Z,29.90
2019-02-27T07:23:15.889Z,29.90
2019-02-27T07:25:44.349Z,29.90
2019-02-27T07:28:12.851Z,29.90
2019-02-27T07:30:42.648Z,29.90
2019-02-27T07:33:11.537Z,29.80
2019-02-27T07:35:40.054Z,29.90
2019-02-27T07:38:08.575Z,29.90
2019-02-27T07:40:37.121Z,29.70
2019-02-27T07:43:05.724Z,29.80
2019-02-27T07:45:34.847Z,29.70
2019-02-27T07:48:03.310Z,29.90
2019-02-27T07:50:32.621Z,29.70
2019-02-27T07:53:01.241Z,29.10
2019-02-27T07:55:29.737Z,29.00
2019-02-27T07:57:59.230Z,29.30
2019-02-27T08:00:27.882Z,28.90
2019-02-27T08:02:56.371Z,28.90
2019-02-27T08:05:28.350Z,28.90
2019-02-27T08:07:55.057Z,28.90
2019-02-27T08:10:25.608Z,28.90
2019-02-27T08:12:56.399Z,28.80
2019-02-27T08:15:25.468Z,28.70
2019-02-27T08:17:57.508Z,28.60
2019-02-27T08:20:24.503Z,28.50
2019-02-27T08:22:53.046Z,28.50
2019-02-27T08:25:21.582Z,28.80
2019-02-27T08:27:50.197Z,28.40
2019-02-27T08:30:21.754Z,28.30
2019-02-27T08:32:50.313Z,28.20
2019-02-27T08:35:21.633Z,28.10
2019-02-27T08:37:50.201Z,28.10
2019-02-27T08:40:18.706Z,28.40
2019-02-27T08:42:47.312Z,28.00
2019-02-27T08:45:20.074Z,28.00
2019-02-27T08:47:47.334Z,27.80
2019-02-27T08:50:19.942Z,27.90
2019-02-27T08:52:51.618Z,27.80
2019-02-27T08:55:22.360Z,27.80
2019-02-27T08:57:49.975Z,27.70
2019-02-27T09:00:26.485Z,27.70
2019-02-27T09:02:55.830Z,27.60
2019-02-27T09:05:24.629Z,27.50
2019-02-27T09:07:53.204Z,27.60
2019-02-27T09:10:26.692Z,27.50
2019-02-27T09:13:04.380Z,27.40
2019-02-27T09:15:24.305Z,27.30
2019-02-27T09:17:52.828Z,27.20
2019-02-27T09:20:22.246Z,27.20
2019-02-27T09:22:50.788Z,27.10
2019-02-27T09:25:23.586Z,27.00
2019-02-27T09:27:49.602Z,26.90
2019-02-27T09:30:20.529Z,26.80
2019-02-27T09:32:49.014Z,26.70
2019-02-27T09:35:17.466Z,26.70
2019-02-27T09:37:48.455Z,26.60
2019-02-27T09:40:29.787Z,26.60
2019-02-27T09:42:58.600Z,26.40
2019-02-27T09:45:36.185Z,26.40
2019-02-27T09:48:05.459Z,26.00
2019-02-27T09:50:39.073Z,25.90
2019-02-27T09:53:07.631Z,26.00
2019-02-27T09:55:36.232Z,25.90
2019-02-27T09:58:10.070Z,25.80
2019-02-27T10:00:41.142Z,25.80
2019-02-27T10:03:09.847Z,25.80
2019-02-27T10:05:40.724Z,25.80
2019-02-27T10:08:09.416Z,25.70
2019-02-27T10:10:37.941Z,25.70
2019-02-27T10:13:06.454Z,25.70
2019-02-27T10:15:35.034Z,25.60
2019-02-27T10:18:03.686Z,25.60
2019-02-27T10:20:36.878Z,25.60
2019-02-27T10:23:02.507Z,25.60
2019-02-27T10:25:31.114Z,25.60
2019-02-27T10:28:03.421Z,25.70
2019-02-27T10:30:29.925Z,25.60
2019-02-27T10:32:58.421Z,25.60
2019-02-27T10:35:29.509Z,25.60
2019-02-27T10:37:57.297Z,25.50
2019-02-27T10:40:27.045Z,25.60
2019-02-27T10:42:55.510Z,25.70
2019-02-27T10:45:24.154Z,25.80
2019-02-27T10:47:52.677Z,25.80
2019-02-27T10:50:21.177Z,25.90
2019-02-27T10:52:50.190Z,25.90
2019-02-27T10:55:22.766Z,26.00
2019-02-27T10:57:51.462Z,26.20
2019-02-27T11:00:27.006Z,26.30
2019-02-27T11:02:55.688Z,26.50
2019-02-27T11:05:26.446Z,26.70
2019-02-27T11:07:55.079Z,26.70
2019-02-27T11:10:24.074Z,26.70
2019-02-27T11:12:52.614Z,26.70
2019-02-27T11:15:22.421Z,26.70
2019-02-27T11:17:51.017Z,26.80
2019-02-27T11:20:21.011Z,26.80
2019-02-27T11:22:49.734Z,26.90
2019-02-27T11:25:26.130Z,26.90
2019-02-27T11:27:54.779Z,26.90
2019-02-27T11:30:43.151Z,26.90
2019-02-27T11:33:11.700Z,26.90
2019-02-27T11:35:40.148Z,26.90
2019-02-27T11:38:08.697Z,26.90
2019-02-27T11:40:41.559Z,26.90
2019-02-27T11:43:07.682Z,27.00
2019-02-27T11:45:36.237Z,27.00
2019-02-27T11:48:04.870Z,27.00
2019-02-27T11:50:33.400Z,26.90
2019-02-27T11:53:02.949Z,26.80
2019-02-27T11:55:31.544Z,26.80
2019-02-27T11:58:04.515Z,26.70
2019-02-27T12:00:33.942Z,26.80
2019-02-27T12:03:02.471Z,26.80
2019-02-27T12:05:33.993Z,26.80
2019-02-27T12:08:01.184Z,26.70
2019-02-27T12:10:31.058Z,26.70
2019-02-27T12:13:01.168Z,26.60
2019-02-27T12:15:30.194Z,26.50
2019-02-27T12:18:00.547Z,26.70
2019-02-27T12:20:29.114Z,26.70
2019-02-27T12:22:57.595Z,26.70
2019-02-27T12:25:28.968Z,26.70
2019-02-27T12:27:56.862Z,26.60
2019-02-27T12:30:30.092Z,26.60
2019-02-27T12:32:58.727Z,26.50
2019-02-27T12:35:36.818Z,26.70
2019-02-27T12:38:08.284Z,26.70
2019-02-27T12:40:36.018Z,26.60
2019-02-27T12:43:04.552Z,26.60
2019-02-27T12:45:33.099Z,26.40
2019-02-27T12:48:01.664Z,26.20
2019-02-27T12:50:31.417Z,26.30
2019-02-27T12:53:00.297Z,26.20
2019-02-27T12:55:28.905Z,26.20
2019-02-27T12:57:57.560Z,26.20
2019-02-27T13:00:28.596Z,26.20
2019-02-27T13:02:58.920Z,26.10
2019-02-27T13:05:28.706Z,26.30
2019-02-27T13:07:57.614Z,26.30
2019-02-27T13:10:33.127Z,26.30
2019-02-27T13:12:59.231Z,26.30
2019-02-27T13:15:29.050Z,26.10
2019-02-27T13:17:58.108Z,25.80
2019-02-27T13:20:28.095Z,26.00
2019-02-27T13:22:56.723Z,26.00
2019-02-27T13:25:25.325Z,25.80
2019-02-27T13:27:53.949Z,25.60
2019-02-27T13:30:24.905Z,25.40
2019-02-27T13:32:53.379Z,25.50
2019-02-27T13:35:23.135Z,25.60
2019-02-27T13:37:52.411Z,25.70
2019-02-27T13:40:27.798Z,25.80
2019-02-27T13:42:56.391Z,25.70
2019-02-27T13:45:29.105Z,25.80
2019-02-27T13:47:59.075Z,25.80
2019-02-27T13:50:27.759Z,25.80
2019-02-27T13:52:56.321Z,25.90
2019-02-27T13:55:24.874Z,25.60
2019-02-27T13:57:53.472Z,25.30
2019-02-27T14:00:31.689Z,25.20
2019-02-27T14:03:00.168Z,25.30
2019-02-27T14:05:29.495Z,25.20
2019-02-27T14:07:58.919Z,24.90
2019-02-27T14:10:30.138Z,25.00
2019-02-27T14:12:58.789Z,25.00
2019-02-27T14:15:28.245Z,24.70
2019-02-27T14:17:56.856Z,24.40
2019-02-27T14:20:26.918Z,24.30
2019-02-27T14:22:55.823Z,24.40
2019-02-27T14:25:30.999Z,24.50
2019-02-27T14:27:56.769Z,24.30
2019-02-27T14:30:28.161Z,24.30
2019-02-27T14:32:56.652Z,23.60
2019-02-27T14:35:25.246Z,23.50
2019-02-27T14:37:53.865Z,23.50
2019-02-27T14:40:22.611Z,23.30
2019-02-27T14:42:54.195Z,23.60
2019-02-27T14:45:23.659Z,23.10
2019-02-27T14:47:52.184Z,22.90
2019-02-27T14:50:23.096Z,22.30
2019-02-27T14:52:51.641Z,22.30
2019-02-27T14:55:21.035Z,21.40
2019-02-27T14:57:51.160Z,21.30
2019-02-27T15:00:25.240Z,21.30
2019-02-27T15:02:55.599Z,21.20
2019-02-27T15:05:24.150Z,21.00
2019-02-27T15:07:54.646Z,20.40
2019-02-27T15:10:23.824Z,19.90
2019-02-27T15:12:55.204Z,19.50
2019-02-27T15:15:30.265Z,19.30
2019-02-27T15:17:58.881Z,19.60
2019-02-27T15:20:28.505Z,19.50
2019-02-27T15:22:57.227Z,19.10
2019-02-27T15:25:27.667Z,18.70
2019-02-27T15:27:58.728Z,18.70
2019-02-27T15:30:33.348Z,18.60
2019-02-27T15:33:05.214Z,18.30
2019-02-27T15:35:32.261Z,18.20
2019-02-27T15:38:00.772Z,18.10
2019-02-27T15:40:32.310Z,18.40
2019-02-27T15:43:00.807Z,18.40
2019-02-27T15:45:29.602Z,18.30
2019-02-27T15:47:58.151Z,18.00
2019-02-27T15:50:30.972Z,18.10
2019-02-27T15:52:59.528Z,18.10
2019-02-27T15:55:32.981Z,18.10
2019-02-27T15:57:58.260Z,18.10
2019-02-27T16:00:28.138Z,18.20
2019-02-27T16:02:56.743Z,18.30
2019-02-27T16:05:30.087Z,18.40
2019-02-27T16:07:55.623Z,18.70
2019-02-27T16:10:28.826Z,18.80
2019-02-27T16:13:00.945Z,18.90
2019-02-27T16:15:27.738Z,19.00
2019-02-27T16:17:56.335Z,19.50
2019-02-27T16:20:25.699Z,19.30
2019-02-27T16:22:54.237Z,19.50
2019-02-27T16:25:23.764Z,19.60
2019-02-27T16:27:52.313Z,19.60
2019-02-27T16:30:23.109Z,19.70
2019-02-27T16:32:51.880Z,19.80
2019-02-27T16:35:20.457Z,19.80
2019-02-27T16:37:49.101Z,20.00
2019-02-27T16:40:19.197Z,20.00
2019-02-27T16:42:48.095Z,20.10
2019-02-27T16:45:19.382Z,20.20
2019-02-27T16:47:47.911Z,20.30
2019-02-27T16:50:23.949Z,20.50
2019-02-27T16:52:49.792Z,20.60
2019-02-27T16:55:20.292Z,20.70
2019-02-27T16:57:49.129Z,20.80
2019-02-27T17:00:25.775Z,21.20
2019-02-27T17:02:54.332Z,20.90
2019-02-27T17:05:22.882Z,21.00
2019-02-27T17:07:52.113Z,21.00
2019-02-27T17:10:23.479Z,21.10
2019-02-27T17:12:52.059Z,21.10
2019-02-27T17:15:20.632Z,21.10
2019-02-27T17:17:50.518Z,21.20
2019-02-27T17:20:21.250Z,21.30
2019-02-27T17:22:49.796Z,21.40
2019-02-27T17:25:18.480Z,21.60
2019-02-27T17:27:50.942Z,21.60
2019-02-27T17:30:21.983Z,21.70
2019-02-27T17:32:50.656Z,21.80
2019-02-27T17:35:20.581Z,21.90
2019-02-27T17:37:51.236Z,22.20
2019-02-27T17:40:19.949Z,22.40
2019-02-27T17:42:53.620Z,22.40
2019-02-27T17:45:24.213Z,22.60
2019-02-27T17:47:52.773Z,23.00
2019-02-27T17:50:21.516Z,23.20
2019-02-27T17:52:50.200Z,23.20
2019-02-27T17:55:19.401Z,23.30
2019-02-27T17:57:47.974Z,23.40
2019-02-27T18:00:31.474Z,23.50
2019-02-27T18:03:00.050Z,23.50
2019-02-27T18:05:28.673Z,23.70
2019-02-27T18:07:57.218Z,23.80
2019-02-27T18:10:25.826Z,24.00
2019-02-27T18:12:54.472Z,24.20
2019-02-27T18:15:24.255Z,24.30
2019-02-27T18:17:52.905Z,24.30
2019-02-27T18:20:24.136Z,24.30
2019-02-27T18:22:51.608Z,24.50
2019-02-27T18:25:20.228Z,24.60
2019-02-27T18:27:48.785Z,24.70
2019-02-27T18:30:22.112Z,24.90
2019-02-27T18:32:50.666Z,25.00
2019-02-27T18:35:20.273Z,25.10
2019-02-27T18:37:53.218Z,25.10
2019-02-27T18:40:20.345Z,25.20
2019-02-27T18:42:48.907Z,25.20
2019-02-27T18:45:22.447Z,25.30
2019-02-27T18:47:50.981Z,25.40
2019-02-27T18:50:19.496Z,25.40
2019-02-27T18:52:48.686Z,25.70
2019-02-27T18:55:17.307Z,25.70
2019-02-27T18:57:47.144Z,25.80
2019-02-27T19:00:27.301Z,25.90
2019-02-27T19:03:10.275Z,26.00
2019-02-27T19:05:41.765Z,26.10
2019-02-27T19:08:09.181Z,26.20
2019-02-27T19:10:41.394Z,26.30
2019-02-27T19:13:08.110Z,26.40
2019-02-27T19:15:36.659Z,26.40
2019-02-27T19:18:06.611Z,26.50
2019-02-27T19:20:45.946Z,26.60
2019-02-27T19:23:17.242Z,26.60
2019-02-27T19:25:44.901Z,26.70
2019-02-27T19:28:13.543Z,26.70
2019-02-27T19:30:42.575Z,26.80
2019-02-27T19:33:11.358Z,26.90
2019-02-27T19:35:39.966Z,26.90
2019-02-27T19:38:12.552Z,27.00
2019-02-27T19:40:38.775Z,27.10
2019-02-27T19:43:07.342Z,27.10
2019-02-27T19:45:36.671Z,27.20
2019-02-27T19:48:05.386Z,27.30
2019-02-27T19:50:34.030Z,27.40
2019-02-27T19:53:05.154Z,27.40
2019-02-27T19:55:32.983Z,27.50
2019-02-27T19:58:01.546Z,27.50
2019-02-27T20:00:34.833Z,27.50
2019-02-27T20:03:01.816Z,27.60
2019-02-27T20:05:30.484Z,27.90
2019-02-27T20:07:59.111Z,27.60
2019-02-27T20:10:30.885Z,27.60
2019-02-27T20:12:58.178Z,27.70
2019-02-27T20:15:27.295Z,27.70
2019-02-27T20:17:55.962Z,27.80
2019-02-27T20:20:24.995Z,27.80
2019-02-27T20:22:54.776Z,27.80
2019-02-27T20:25:28.663Z,27.80
2019-02-27T20:27:58.723Z,27.90
2019-02-27T20:30:27.506Z,28.00
2019-02-27T20:32:56.265Z,28.10
2019-02-27T20:35:24.972Z,28.00
2019-02-27T20:37:56.300Z,28.10
2019-02-27T20:40:24.790Z,28.10
2019-02-27T20:42:55.210Z,28.10
2019-02-27T20:45:26.529Z,28.20
2019-02-27T20:47:57.651Z,28.20
2019-02-27T20:50:36.812Z,28.20
2019-02-27T20:53:06.533Z,28.10
2019-02-27T20:55:35.080Z,28.20
2019-02-27T20:58:03.637Z,28.20
2019-02-27T21:00:35.925Z,28.20
2019-02-27T21:03:02.757Z,28.20
2019-02-27T21:05:32.937Z,28.30
2019-02-27T21:08:02.545Z,28.30
2019-02-27T21:10:32.842Z,28.30
2019-02-27T21:13:01.488Z,28.40
2019-02-27T21:15:32.493Z,28.40
2019-02-27T21:18:00.655Z,28.40
2019-02-27T21:20:29.181Z,28.50
2019-02-27T21:22:59.800Z,28.50
2019-02-27T21:25:27.867Z,28.60
2019-02-27T21:27:56.354Z,28.60
2019-02-27T21:30:25.646Z,28.60
2019-02-27T21:32:54.108Z,28.60
2019-02-27T21:35:22.757Z,28.60
2019-02-27T21:37:54.133Z,28.70
2019-02-27T21:40:22.639Z,28.70
2019-02-27T21:42:51.899Z,28.80
2019-02-27T21:45:23.917Z,28.80
2019-02-27T21:47:52.921Z,28.80
2019-02-27T21:50:27.595Z,28.90
2019-02-27T21:52:56.212Z,28.90
2019-02-27T21:55:24.952Z,28.90
2019-02-27T21:57:58.101Z,28.90
2019-02-27T22:00:28.785Z,28.90
2019-02-27T22:02:58.092Z,28.90
2019-02-27T22:05:26.854Z,29.00
2019-02-27T22:07:55.482Z,29.00
2019-02-27T22:10:24.099Z,29.10
2019-02-27T22:12:52.739Z,29.10
2019-02-27T22:15:29.094Z,29.10
2019-02-27T22:17:57.806Z,29.10
2019-02-27T22:20:26.990Z,29.10
2019-02-27T22:22:55.695Z,29.10
2019-02-27T22:25:24.228Z,29.10
2019-02-27T22:27:52.856Z,29.20
2019-02-27T22:30:24.557Z,29.10
2019-02-27T22:32:53.128Z,29.10
2019-02-27T22:35:21.668Z,29.20
2019-02-27T22:37:54.131Z,29.20
2019-02-27T22:40:23.782Z,29.20
2019-02-27T22:42:52.362Z,29.30
2019-02-27T22:45:21.272Z,29.30
2019-02-27T22:47:50.378Z,29.30
2019-02-27T22:50:19.882Z,29.30
2019-02-27T22:52:54.077Z,29.20
2019-02-27T22:55:18.862Z,29.30
2019-02-27T22:57:47.418Z,29.40
2019-02-27T23:00:56.370Z,29.40
2019-02-27T23:03:28.572Z,29.30
2019-02-27T23:05:57.125Z,29.30
2019-02-27T23:08:25.778Z,29.30
2019-02-27T23:10:54.398Z,29.40
2019-02-27T23:13:23.198Z,29.50
2019-02-27T23:15:52.343Z,29.50
2019-02-27T23:18:20.799Z,29.50
2019-02-27T23:20:49.361Z,29.50
2019-02-27T23:23:17.926Z,29.50
2019-02-27T23:25:47.216Z,29.50
2019-02-27T23:28:16.006Z,29.60
2019-02-27T23:30:46.926Z,29.50
2019-02-27T23:33:14.828Z,29.60
2019-02-27T23:35:43.373Z,29.60
2019-02-27T23:38:11.856Z,29.60
2019-02-27T23:40:40.384Z,29.60
2019-02-27T23:43:08.956Z,29.70
2019-02-27T23:45:37.490Z,29.60
2019-02-27T23:48:05.989Z,29.60
2019-02-27T23:50:34.472Z,29.70
2019-02-27T23:53:02.969Z,29.60
2019-02-27T23:55:31.504Z,29.70
2019-02-27T23:58:00.006Z,29.80
